Data for 05/17/2017

Time Sea-Level Adjusted Pressure Absolute Pressure Temperature Relative Humidity Dew Point   
(mb) (inHg) (mb) (inHg) (C) (F) (%) (C) (F)
00:05 1003 29.62 832 24.57 8.3 47 56 0.1 32.1
00:10 1003 29.62 832 24.57 8.4 47.1 56 0.2 32.3
00:15 1003 29.62 832 24.57 8.3 47 56 0.2 32.4
00:20 1003 29.62 832 24.57 8.4 47 56 0.2 32.4
00:25 1003 29.62 832 24.57 8.4 47.2 56 0.2 32.3
00:30 1003 29.62 832 24.57 8.5 47.4 54 -0.1 31.7
00:35 1003 29.62 832 24.57 8.7 47.6 54 -0 32
00:40 1003 29.62 832 24.57 8.7 47.7 53 -0.3 31.5
00:45 1003 29.62 832 24.57 8.8 47.8 54 -0.1 31.9
00:50 1003 29.62 832 24.57 8.7 47.7 55 0.1 32.2
00:55 1003 29.62 832 24.57 8.6 47.5 55 0 32.1
01:00 1003 29.62 832 24.57 8.6 47.5 54 -0.2 31.6
01:05 1003 29.62 832 24.57 8.7 47.6 55 0.1 32.2
01:10 1003 29.62 832 24.57 8.6 47.4 56 0.3 32.6
01:15 1003 29.62 832 24.57 8.4 47.1 57 0.4 32.7
01:20 1003 29.62 832 24.57 8.3 46.9 58 0.5 32.9
01:25 1003 29.62 832 24.57 8.2 46.7 59 0.6 33
01:30 1003 29.62 832 24.57 8.1 46.5 59 0.7 33.2
01:35 1003 29.62 832 24.57 8 46.3 60 0.7 33.2
01:40 1003 29.62 832 24.57 7.9 46.2 61 0.7 33.3
01:45 1003 29.62 832 24.57 7.8 46 61 0.7 33.3
01:50 1003 29.62 832 24.57 7.7 45.9 61 0.8 33.4
01:55 1003 29.62 832 24.57 7.7 45.8 62 0.8 33.5
02:00 1003 29.62 832 24.57 7.6 45.7 62 0.9 33.6
02:05 1003 29.62 832 24.57 7.6 45.6 62 0.9 33.6
02:10 1003 29.62 832 24.57 7.5 45.5 63 0.8 33.5
02:15 1003 29.62 832 24.57 7.5 45.5 63 1 33.8
02:20 1003 29.62 832 24.57 7.5 45.5 63 1 33.7
02:25 1003 29.62 832 24.57 7.5 45.6 63 0.9 33.6
02:30 1003 29.62 832 24.57 7.6 45.6 63 1 33.8
02:35 1003 29.62 832 24.57 7.5 45.6 64 1.2 34.2
02:40 1003 29.62 832 24.57 7.6 45.6 65 1.4 34.5
02:45 1003 29.62 832 24.57 7.6 45.6 66 1.6 34.9
02:50 1003 29.62 832 24.57 7.5 45.6 66 1.6 34.8
02:55 1003 29.62 832 24.57 7.5 45.5 67 1.8 35.2
03:00 1003 29.62 832 24.57 7.4 45.4 68 1.9 35.5
03:05 1003 29.62 832 24.57 7.4 45.3 69 2.1 35.8
03:10 1003 29.62 832 24.57 7.4 45.3 70 2.4 36.2
03:15 1003 29.62 832 24.57 7.4 45.2 71 2.5 36.4
03:20 1003 29.62 832 24.57 7.3 45.1 72 2.6 36.6
03:25 1003 29.62 832 24.57 7.3 45.1 72 2.6 36.7
03:30 1003 29.62 832 24.57 7.3 45.1 73 2.7 36.9
03:35 1003 29.62 832 24.57 7.2 45 73 2.8 37
03:40 1003 29.62 832 24.57 7.2 45 74 2.8 37.1
03:45 1003 29.62 832 24.57 7.2 45 74 2.9 37.3
03:50 1003 29.62 832 24.57 7.2 44.9 74 2.9 37.3
03:55 1003 29.62 832 24.57 7.2 44.9 74 2.9 37.2
04:00 1003 29.62 832 24.57 7.2 44.9 74 3 37.3
04:05 1003 29.62 832 24.57 7.1 44.8 75 3 37.4
04:10 1003 29.62 832 24.57 7.1 44.7 75 2.9 37.2
04:15 1003 29.62 832 24.57 7.1 44.8 75 2.9 37.3
04:20 1003 29.62 832 24.57 7.1 44.7 75 3 37.3
04:25 1003 29.62 832 24.57 7 44.6 75 2.9 37.3
04:30 1003 29.62 832 24.57 7 44.5 76 3 37.3
04:35 1003 29.62 832 24.57 6.9 44.5 77 3.1 37.6
04:40 1003 29.62 832 24.57 6.8 44.2 78 3.3 37.9
04:45 1003 29.62 832 24.57 6.6 44 80 3.4 38.1
04:50 1003 29.62 832 24.57 6.5 43.8 80 3.4 38.1
04:55 1003 29.62 832 24.57 6.5 43.7 81 3.5 38.3
05:00 1003 29.62 832 24.57 6.4 43.4 82 3.5 38.3
05:05 1003 29.62 832 24.57 6.3 43.3 82 3.4 38.1
05:10 1003 29.62 832 24.57 6.2 43.2 83 3.6 38.5
05:15 1003 29.62 832 24.57 6.1 43 84 3.6 38.5
05:20 1003 29.62 832 24.57 6 42.8 85 3.7 38.6
05:25 1003 29.62 832 24.57 6 42.8 85 3.6 38.5
05:30 1003 29.62 832 24.57 6 42.9 84 3.5 38.3
05:35 1003 29.62 832 24.57 6.1 43.1 83 3.4 38.2
05:40 1003 29.62 833 24.6 6.2 43.1 83 3.6 38.4
05:45 1003 29.62 833 24.6 6.2 43.1 83 3.5 38.3
05:50 1003 29.62 833 24.6 6.1 43 85 3.7 38.6
05:55 1003 29.62 833 24.6 6.1 42.9 85 3.7 38.7
06:00 1003 29.62 833 24.6 6.1 42.9 84 3.6 38.4
06:05 1004 29.65 833 24.6 6.1 43.1 84 3.7 38.6
06:10 1004 29.65 833 24.6 6.2 43.1 83 3.4 38.2
06:15 1004 29.65 833 24.6 6.2 43.2 83 3.6 38.4
06:20 1004 29.65 833 24.6 6.2 43.1 83 3.5 38.2
06:25 1004 29.65 833 24.6 6.2 43.2 83 3.5 38.3
06:30 1004 29.65 833 24.6 6.2 43.2 82 3.4 38.2
06:35 1004 29.65 833 24.6 6.2 43.1 83 3.6 38.5
06:40 1004 29.65 833 24.6 6.2 43.1 83 3.5 38.3
06:45 1004 29.65 833 24.6 6.2 43.2 83 3.6 38.5
06:50 1004 29.65 833 24.6 6.2 43.1 84 3.6 38.6
06:55 1004 29.65 833 24.6 6.1 43 84 3.6 38.4
07:00 1004 29.65 833 24.6 6.2 43.2 83 3.6 38.5
07:05 1004 29.65 833 24.6 6.2 43.1 84 3.6 38.5
07:10 1004 29.65 833 24.6 6.2 43.1 85 3.7 38.7
07:15 1004 29.65 833 24.6 6 42.8 83 3.3 38
07:20 1004 29.65 833 24.6 5.8 42.4 84 3.4 38.1
07:25 1004 29.65 833 24.6 5.7 42.2 83 3 37.3
07:30 1004 29.65 833 24.6 5.5 41.8 84 3 37.4
07:35 1004 29.65 833 24.6 5.3 41.5 85 2.9 37.3
07:40 1004 29.65 833 24.6 5.3 41.6 82 2.5 36.5
07:45 1004 29.65 833 24.6 5.4 41.6 82 2.6 36.7
07:50 1004 29.65 834 24.63 5.3 41.6 84 2.9 37.2
07:55 1004 29.65 834 24.63 5.4 41.6 83 2.8 37
08:00 1004 29.65 834 24.63 5.1 41.3 84 2.7 36.8
08:05 1004 29.65 834 24.63 5.1 41.2 85 2.8 37.1
08:10 1004 29.65 834 24.63 5.1 41.2 86 2.9 37.2
08:15 1004 29.65 834 24.63 5 41 85 2.8 37
08:20 1004 29.65 834 24.63 4.9 40.8 87 2.8 37.1
08:25 1005 29.68 834 24.63 4.9 40.7 87 2.9 37.3
08:30 1005 29.68 834 24.63 4.8 40.7 87 2.8 37.1
08:35 1005 29.68 834 24.63 4.8 40.6 87 2.8 37
08:40 1005 29.68 834 24.63 4.8 40.6 87 2.8 37.1
08:45 1005 29.68 834 24.63 4.8 40.7 86 2.7 36.8
08:50 1005 29.68 834 24.63 4.8 40.6 88 2.9 37.2
08:55 1005 29.68 834 24.63 4.9 40.8 86 2.8 37
09:00 1005 29.68 834 24.63 5 40.9 87 3 37.4
09:05 1005 29.68 834 24.63 4.9 40.8 88 3.1 37.7
09:10 1005 29.68 834 24.63 4.6 40.3 89 3 37.4
09:15 1005 29.68 835 24.66 4.4 39.9 90 2.9 37.2
09:20 1006 29.71 835 24.66 4.2 39.6 90 2.8 37
09:25 1006 29.71 835 24.66 4.2 39.6 90 2.8 37
09:30 1006 29.71 835 24.66 4.1 39.4 90 2.6 36.6
09:35 1006 29.71 835 24.66 3.9 39.1 89 2.3 36.1
09:40 1006 29.71 835 24.66 3.6 38.5 90 2.1 35.7
09:45 1006 29.71 835 24.66 3.4 38.1 89 1.7 35.1
09:50 1006 29.71 835 24.66 3 37.5 89 1.3 34.4
09:55 1006 29.71 835 24.66 2.7 36.9 89 1.1 34
10:00 1006 29.71 836 24.69 2.5 36.5 88 0.7 33.3
10:05 1006 29.71 836 24.69 2 35.6 89 0.3 32.6
10:10 1006 29.71 836 24.69 1.5 34.7 90 -0 32
10:15 1007 29.74 836 24.69 1.2 34.2 90 -0.2 31.7
10:20 1007 29.74 836 24.69 1.1 33.9 91 -0.3 31.5
10:25 1007 29.74 836 24.69 1 33.7 91 -0.3 31.4
10:30 1007 29.74 836 24.69 0.9 33.6 91 -0.4 31.2
10:35 1007 29.74 836 24.69 0.6 33.1 92 -0.6 30.9
10:40 1007 29.74 836 24.69 0.5 32.8 92 -0.7 30.8
10:45 1007 29.74 836 24.69 0.4 32.7 93 -0.6 30.9
10:50 1007 29.74 837 24.72 0.6 33 93 -0.5 31.2
10:55 1007 29.74 837 24.72 0.4 32.8 93 -0.6 30.9
11:00 1008 29.77 837 24.72 0.4 32.6 93 -0.6 30.9
11:05 1008 29.77 837 24.72 0.5 32.9 93 -0.5 31.2
11:10 1008 29.77 837 24.72 0.7 33.2 93 -0.3 31.5
11:15 1008 29.77 837 24.72 0.7 33.3 93 -0.3 31.4
11:20 1008 29.77 837 24.72 0.8 33.4 93 -0.2 31.7
11:25 1008 29.77 837 24.72 1.1 34 93 0.1 32.1
11:30 1008 29.77 837 24.72 1.2 34.1 92 0 32.1
11:35 1008 29.77 837 24.72 1.1 34 92 -0.1 31.9
11:40 1008 29.77 837 24.72 1.2 34.1 92 -0 32
11:45 1008 29.77 837 24.72 1.4 34.4 91 0.1 32.1
11:50 1008 29.77 837 24.72 1.2 34.2 90 -0.2 31.6
11:55 1008 29.77 837 24.72 1 33.8 91 -0.3 31.4
12:00 1008 29.77 838 24.75 0.9 33.6 92 -0.3 31.5
12:05 1008 29.77 838 24.75 0.8 33.5 92 -0.3 31.4
12:10 1009 29.8 838 24.75 0.8 33.5 92 -0.3 31.4
12:15 1009 29.8 838 24.75 0.8 33.4 92 -0.4 31.3
12:20 1009 29.8 838 24.75 0.6 33.1 92 -0.5 31.1
12:25 1009 29.8 838 24.75 0.5 33 93 -0.5 31.1
12:30 1009 29.8 838 24.75 0.7 33.3 93 -0.3 31.4
12:35 1009 29.8 838 24.75 0.7 33.3 92 -0.4 31.3
12:40 1009 29.8 838 24.75 0.5 32.9 93 -0.6 31
12:45 1009 29.8 838 24.75 0.4 32.8 93 -0.6 30.9
12:50 1009 29.8 838 24.75 0.6 33.1 93 -0.4 31.3
12:55 1009 29.8 839 24.78 0.7 33.3 93 -0.3 31.4
13:00 1009 29.8 839 24.78 0.7 33.3 93 -0.4 31.4
13:05 1010 29.83 839 24.78 0.8 33.5 93 -0.2 31.6
13:10 1010 29.83 839 24.78 1.1 34 92 -0 32
13:15 1010 29.83 839 24.78 1.4 34.5 91 0 32.1
13:20 1010 29.83 839 24.78 1.2 34.2 90 -0.1 31.7
13:25 1010 29.83 839 24.78 1.2 34.1 90 -0.2 31.6
13:30 1010 29.83 839 24.78 1.2 34.1 90 -0.3 31.5
13:35 1010 29.83 839 24.78 1.4 34.6 91 0.1 32.2
13:40 1010 29.83 839 24.78 1.5 34.8 90 0 32.1
13:45 1010 29.83 839 24.78 1.3 34.4 89 -0.3 31.5
13:50 1010 29.83 839 24.78 0.9 33.7 91 -0.3 31.5
13:55 1010 29.83 839 24.78 1.1 33.9 92 -0.1 31.9
14:00 1010 29.83 839 24.78 1.4 34.5 91 0.1 32.2
14:05 1010 29.83 839 24.78 1.7 35.1 91 0.4 32.7
14:10 1010 29.83 839 24.78 2 35.6 88 0.2 32.4
14:15 1010 29.83 840 24.81 1.9 35.3 88 0.1 32.2
14:20 1010 29.83 840 24.81 1.7 35.1 89 0.1 32.3
14:25 1010 29.83 840 24.81 1.7 35.1 89 0.1 32.1
14:30 1011 29.85 840 24.81 1.4 34.5 89 -0.2 31.7
14:35 1011 29.85 840 24.81 1.3 34.4 90 -0.1 31.9
14:40 1011 29.85 840 24.81 1.6 34.8 89 0 32
14:45 1011 29.85 840 24.81 1.6 34.8 89 -0 32
14:50 1011 29.85 840 24.81 1.3 34.4 90 -0.2 31.7
14:55 1011 29.85 840 24.81 1.2 34.2 90 -0.2 31.7
15:00 1011 29.85 840 24.81 1.3 34.3 90 -0.2 31.6
15:05 1011 29.85 840 24.81 1.1 34.1 91 -0.2 31.6
15:10 1011 29.85 840 24.81 1.3 34.4 90 -0.1 31.8
15:15 1011 29.85 840 24.81 1.4 34.5 90 -0.1 31.8
15:20 1011 29.85 841 24.83 1.4 34.4 90 -0.1 31.8
15:25 1011 29.85 841 24.83 1.2 34.2 89 -0.4 31.4
15:30 1012 29.88 841 24.83 0.9 33.6 91 -0.4 31.2
15:35 1012 29.88 841 24.83 1 33.7 91 -0.3 31.4
15:40 1012 29.88 841 24.83 0.9 33.7 91 -0.4 31.2
15:45 1012 29.88 841 24.83 0.9 33.7 91 -0.3 31.5
15:50 1012 29.88 841 24.83 1.2 34.2 91 -0.1 31.8
15:55 1012 29.88 841 24.83 1.3 34.3 90 -0.3 31.5
16:00 1012 29.88 841 24.83 1.2 34.1 90 -0.3 31.4
16:05 1012 29.88 841 24.83 1.2 34.1 91 -0.2 31.6
16:10 1012 29.88 841 24.83 1.4 34.5 90 -0.1 31.8
16:15 1012 29.88 841 24.83 1.5 34.6 90 -0.1 31.9
16:20 1012 29.88 841 24.83 1.6 34.8 89 -0.1 31.9
16:25 1012 29.88 841 24.83 1.6 34.8 89 0 32
16:30 1012 29.88 842 24.86 1.5 34.6 90 -0 31.9
16:35 1012 29.88 842 24.86 1.6 34.8 90 0.1 32.1
16:40 1013 29.91 842 24.86 1.7 35 90 0.1 32.2
16:45 1013 29.91 842 24.86 1.7 35.1 90 0.2 32.3
16:50 1013 29.91 842 24.86 1.8 35.2 89 0.1 32.2
16:55 1013 29.91 842 24.86 1.8 35.2 89 0.1 32.2
17:00 1013 29.91 842 24.86 1.8 35.2 88 -0 32
17:05 1013 29.91 842 24.86 1.6 34.8 88 -0.2 31.7
17:10 1013 29.91 842 24.86 1.2 34.2 90 -0.3 31.4
17:15 1013 29.91 842 24.86 1.1 33.9 90 -0.4 31.3
17:20 1013 29.91 842 24.86 1 33.7 91 -0.4 31.3
17:25 1013 29.91 842 24.86 1.1 33.9 91 -0.2 31.6
17:30 1013 29.91 843 24.89 1.2 34.2 91 -0.1 31.8
17:35 1014 29.94 843 24.89 1.1 34 90 -0.3 31.4
17:40 1014 29.94 843 24.89 0.9 33.6 90 -0.5 31.1
17:45 1014 29.94 843 24.89 0.7 33.3 91 -0.6 30.8
17:50 1014 29.94 843 24.89 0.5 32.9 92 -0.7 30.7
17:55 1014 29.94 843 24.89 0.4 32.7 92 -0.8 30.6
18:00 1014 29.94 843 24.89 0.4 32.7 92 -0.7 30.7
18:05 1014 29.94 843 24.89 0.5 32.8 92 -0.6 30.9
18:10 1014 29.94 843 24.89 0.6 33.1 92 -0.5 31.1
18:15 1014 29.94 843 24.89 0.7 33.3 92 -0.4 31.3
18:20 1014 29.94 843 24.89 0.8 33.4 92 -0.3 31.4
18:25 1014 29.94 843 24.89 0.8 33.4 92 -0.4 31.3
18:30 1014 29.94 843 24.89 0.8 33.5 92 -0.3 31.4
18:35 1014 29.94 843 24.89 0.7 33.3 92 -0.5 31.1
18:40 1014 29.94 843 24.89 0.7 33.2 92 -0.5 31
18:45 1014 29.94 843 24.89 0.6 33.2 92 -0.5 31
18:50 1014 29.94 844 24.92 0.6 33 92 -0.6 31
18:55 1014 29.94 844 24.92 0.6 33.1 92 -0.6 31
19:00 1014 29.94 844 24.92 0.6 33.1 92 -0.5 31
19:05 1014 29.94 844 24.92 0.6 33.2 92 -0.6 31
19:10 1015 29.97 844 24.92 0.6 33 92 -0.6 30.9
19:15 1015 29.97 844 24.92 0.6 33.1 92 -0.6 31
19:20 1015 29.97 844 24.92 0.6 33.1 92 -0.6 31
19:25 1015 29.97 844 24.92 0.6 33 92 -0.6 31
19:30 1015 29.97 844 24.92 0.6 33 92 -0.6 30.9
19:35 1015 29.97 844 24.92 0.5 32.9 92 -0.6 30.9
19:40 1015 29.97 844 24.92 0.5 32.9 92 -0.6 30.9
19:45 1015 29.97 844 24.92 0.5 32.9 92 -0.6 30.9
19:50 1015 29.97 844 24.92 0.5 32.9 92 -0.6 30.9
19:55 1015 29.97 844 24.92 0.5 32.9 92 -0.6 30.8
20:00 1015 29.97 844 24.92 0.5 32.9 92 -0.6 30.9
20:05 1015 29.97 844 24.92 0.5 32.8 92 -0.7 30.8
20:10 1015 29.97 844 24.92 0.4 32.7 92 -0.7 30.8
20:15 1015 29.97 844 24.92 0.4 32.7 92 -0.7 30.7
20:20 1015 29.97 844 24.92 0.4 32.6 93 -0.7 30.7
20:25 1015 29.97 844 24.92 0.3 32.6 93 -0.7 30.7
20:30 1015 29.97 845 24.95 0.3 32.6 93 -0.7 30.7
20:35 1015 29.97 845 24.95 0.3 32.6 93 -0.7 30.7
20:40 1015 29.97 845 24.95 0.3 32.6 93 -0.7 30.7
20:45 1016 30 845 24.95 0.3 32.5 93 -0.8 30.6
20:50 1016 30 845 24.95 0.2 32.4 93 -0.8 30.6
20:55 1016 30 845 24.95 0.3 32.5 93 -0.7 30.7
21:00 1016 30 845 24.95 0.2 32.4 93 -0.8 30.6
21:05 1016 30 845 24.95 0.2 32.4 93 -0.8 30.6
21:10 1016 30 845 24.95 0.2 32.3 93 -0.8 30.5
21:15 1016 30 845 24.95 0.1 32.2 93 -0.9 30.4
21:20 1016 30 845 24.95 0.1 32.2 93 -0.9 30.5
21:25 1016 30 845 24.95 0.2 32.3 93 -0.8 30.6
21:30 1016 30 845 24.95 0.2 32.3 94 -0.7 30.7
21:35 1016 30 845 24.95 0.2 32.4 94 -0.7 30.7
21:40 1016 30 845 24.95 0.2 32.4 94 -0.7 30.7
21:45 1016 30 845 24.95 0.2 32.4 94 -0.7 30.7
21:50 1016 30 845 24.95 0.1 32.2 94 -0.8 30.6
21:55 1016 30 846 24.98 0.1 32.2 94 -0.8 30.5
22:00 1016 30 845 24.95 0.1 32.2 94 -0.8 30.6
22:05 1016 30 846 24.98 0.1 32.2 94 -0.7 30.7
22:10 1016 30 846 24.98 0.2 32.3 94 -0.7 30.7
22:15 1017 30.03 846 24.98 0.2 32.4 94 -0.7 30.8
22:20 1017 30.03 846 24.98 0.2 32.4 94 -0.6 30.9
22:25 1017 30.03 846 24.98 0.3 32.5 94 -0.6 30.9
22:30 1017 30.03 846 24.98 0.2 32.4 94 -0.7 30.8
22:35 1017 30.03 846 24.98 0.2 32.3 94 -0.7 30.8
22:40 1017 30.03 846 24.98 0.2 32.3 94 -0.7 30.7
22:45 1017 30.03 846 24.98 0.2 32.4 94 -0.6 30.8
22:50 1017 30.03 846 24.98 0.2 32.3 94 -0.7 30.7
22:55 1017 30.03 846 24.98 0.2 32.3 94 -0.7 30.7
23:00 1017 30.03 846 24.98 0.2 32.3 94 -0.7 30.8
23:05 1017 30.03 846 24.98 0.1 32.3 94 -0.7 30.7
23:10 1017 30.03 846 24.98 0.1 32.2 94 -0.7 30.7
23:15 1017 30.03 846 24.98 0.1 32.2 94 -0.7 30.7
23:20 1017 30.03 846 24.98 0.2 32.3 94 -0.7 30.8
23:25 1017 30.03 846 24.98 0.1 32.3 94 -0.7 30.8
23:30 1017 30.03 846 24.98 0.1 32.2 94 -0.7 30.7
23:35 1017 30.03 846 24.98 0.1 32.3 94 -0.7 30.8
23:40 1017 30.03 846 24.98 0.3 32.5 94 -0.6 31
23:45 1017 30.03 846 24.98 0.3 32.6 94 -0.5 31
23:50 1017 30.03 846 24.98 0.4 32.6 94 -0.5 31.1
23:55 1017 30.03 846 24.98 0.3 32.6 94 -0.5 31.1
24:00 1017 30.03 846 24.98 0.3 32.5 94 -0.6 30.9